createdAt,value
2017-01-09T00:00:09.533Z,3.52
2017-01-09T00:00:50.058Z,3.51
2017-01-09T00:01:30.603Z,3.55
2017-01-09T00:02:11.140Z,3.57
2017-01-09T00:02:51.633Z,3.47
2017-01-09T00:03:32.161Z,3.57
2017-01-09T00:04:12.643Z,3.48
2017-01-09T00:04:53.205Z,3.51
2017-01-09T00:05:33.751Z,3.57
2017-01-09T00:06:14.259Z,3.51
2017-01-09T00:06:54.776Z,3.48
2017-01-09T00:07:35.354Z,3.5
2017-01-09T00:08:15.895Z,3.51
2017-01-09T00:08:56.428Z,3.45
2017-01-09T00:09:37.047Z,3.45
2017-01-09T00:10:17.607Z,3.43
2017-01-09T00:10:58.127Z,3.48
2017-01-09T00:11:38.690Z,3.57
2017-01-09T00:12:19.359Z,3.54
2017-01-09T00:12:59.760Z,3.5
2017-01-09T00:13:40.287Z,3.52
2017-01-09T00:14:20.774Z,3.6
2017-01-09T00:15:01.316Z,3.58
2017-01-09T00:15:41.866Z,3.54
2017-01-09T00:16:22.407Z,3.6
2017-01-09T00:17:03.071Z,3.47
2017-01-09T00:17:43.496Z,3.51
2017-01-09T00:18:24.025Z,3.61
2017-01-09T00:19:04.662Z,3.65
2017-01-09T00:19:45.247Z,3.48
2017-01-09T00:20:25.788Z,3.52
2017-01-09T00:21:06.279Z,3.55
2017-01-09T00:21:46.842Z,3.57
2017-01-09T00:22:27.428Z,3.61
2017-01-09T00:23:07.986Z,3.6
2017-01-09T00:23:48.502Z,3.58
2017-01-09T00:24:29.079Z,3.52
2017-01-09T00:25:09.597Z,3.55
2017-01-09T00:25:50.160Z,3.57
2017-01-09T00:26:30.647Z,3.42
2017-01-09T00:27:11.244Z,3.54
2017-01-09T00:27:51.690Z,3.45
2017-01-09T00:28:32.287Z,3.36
2017-01-09T00:29:12.908Z,3.54
2017-01-09T00:29:53.409Z,3.42
2017-01-09T00:30:34.033Z,3.52
2017-01-09T00:31:14.470Z,3.5
2017-01-09T00:31:55.043Z,3.55
2017-01-09T00:32:35.522Z,3.48
2017-01-09T00:33:16.068Z,3.54
2017-01-09T00:33:56.575Z,3.54
2017-01-09T00:34:37.207Z,3.61
2017-01-09T00:35:17.725Z,3.55
2017-01-09T00:35:58.277Z,3.55
2017-01-09T00:36:38.847Z,3.61
2017-01-09T00:37:19.415Z,3.57
2017-01-09T00:37:59.915Z,3.65
2017-01-09T00:38:40.431Z,3.57
2017-01-09T00:39:20.986Z,3.55
2017-01-09T00:40:01.523Z,3.6
2017-01-09T00:40:42.026Z,3.52
2017-01-09T00:41:22.566Z,3.52
2017-01-09T00:42:03.108Z,3.55
2017-01-09T00:42:43.670Z,3.57
2017-01-09T00:43:24.213Z,3.57
2017-01-09T00:44:04.720Z,3.47
2017-01-09T00:44:45.227Z,3.55
2017-01-09T00:45:25.828Z,3.66
2017-01-09T00:46:06.348Z,3.61
2017-01-09T00:46:46.924Z,3.61
2017-01-09T00:47:27.412Z,3.52
2017-01-09T00:48:08.124Z,3.52
2017-01-09T00:48:48.763Z,3.5
2017-01-09T00:49:29.206Z,3.65
2017-01-09T00:50:09.732Z,3.65
2017-01-09T00:50:50.262Z,3.51
2017-01-09T00:51:30.793Z,3.55
2017-01-09T00:52:11.312Z,3.57
2017-01-09T00:52:51.847Z,3.55
2017-01-09T00:53:32.385Z,3.51
2017-01-09T00:54:12.955Z,3.55
2017-01-09T00:54:53.471Z,3.48
2017-01-09T00:55:34.014Z,3.58
2017-01-09T00:56:14.495Z,3.54
2017-01-09T00:56:55.058Z,3.52
2017-01-09T00:57:35.592Z,3.55
2017-01-09T00:58:16.112Z,3.54
2017-01-09T00:58:56.659Z,3.47
2017-01-09T00:59:37.175Z,3.6
2017-01-09T01:00:17.718Z,3.55
2017-01-09T01:00:58.234Z,3.58
2017-01-09T01:01:38.788Z,3.6
2017-01-09T01:02:19.289Z,3.61
2017-01-09T01:02:59.826Z,3.42
2017-01-09T01:03:40.380Z,3.54
2017-01-09T01:04:20.890Z,3.65
2017-01-09T01:05:01.548Z,3.58
2017-01-09T01:05:42.141Z,3.62
2017-01-09T01:06:22.665Z,3.62
2017-01-09T01:07:03.180Z,3.6
2017-01-09T01:07:43.708Z,3.65
2017-01-09T01:08:24.313Z,3.78
2017-01-09T01:09:04.852Z,3.75
2017-01-09T01:09:45.446Z,3.62
2017-01-09T01:10:25.915Z,3.65
2017-01-09T01:11:06.492Z,3.66
2017-01-09T01:11:47.012Z,3.66
2017-01-09T01:12:27.535Z,3.57
2017-01-09T01:13:08.015Z,3.72
2017-01-09T01:13:48.586Z,3.72
2017-01-09T01:14:29.079Z,3.62
2017-01-09T01:15:09.695Z,3.62
2017-01-09T01:15:50.195Z,3.69
2017-01-09T01:16:30.725Z,3.73
2017-01-09T01:17:11.295Z,3.69
2017-01-09T01:17:51.846Z,3.61
2017-01-09T01:18:32.332Z,3.76
2017-01-09T01:19:12.863Z,3.75
2017-01-09T01:19:53.385Z,3.75
2017-01-09T01:20:33.878Z,3.78
2017-01-09T01:21:14.532Z,3.68
2017-01-09T01:21:55.017Z,3.76
2017-01-09T01:22:35.561Z,3.66
2017-01-09T01:23:16.127Z,3.66
2017-01-09T01:23:56.623Z,3.75
2017-01-09T01:24:37.178Z,3.75
2017-01-09T01:25:17.772Z,3.76
2017-01-09T01:25:58.285Z,3.84
2017-01-09T01:26:38.868Z,3.7
2017-01-09T01:27:19.364Z,3.78
2017-01-09T01:27:59.874Z,3.72
2017-01-09T01:28:40.473Z,3.73
2017-01-09T01:29:20.921Z,3.75
2017-01-09T01:30:01.528Z,3.65
2017-01-09T01:30:42.021Z,3.66
2017-01-09T01:31:22.572Z,3.62
2017-01-09T01:32:03.102Z,3.6
2017-01-09T01:32:43.647Z,3.66
2017-01-09T01:33:24.201Z,3.57
2017-01-09T01:34:04.671Z,3.55
2017-01-09T01:34:45.244Z,3.52
2017-01-09T01:35:25.819Z,3.55
2017-01-09T01:36:06.395Z,3.68
2017-01-09T01:36:46.919Z,3.58
2017-01-09T01:37:27.453Z,3.55
2017-01-09T01:38:07.953Z,3.52
2017-01-09T01:38:48.479Z,3.61
2017-01-09T01:39:29.004Z,3.61
2017-01-09T01:40:09.490Z,3.65
2017-01-09T01:42:22.769Z,3.62
2017-01-09T01:43:03.315Z,3.65
2017-01-09T01:43:43.878Z,3.66
2017-01-09T01:44:24.401Z,3.69
2017-01-09T01:45:04.924Z,3.66
2017-01-09T01:45:45.408Z,3.62
2017-01-09T01:46:25.977Z,3.66
2017-01-09T01:47:06.463Z,3.6
2017-01-09T01:47:47.038Z,3.61
2017-01-09T01:48:27.492Z,3.43
2017-01-09T01:49:08.046Z,3.42
2017-01-09T01:49:48.586Z,3.57
2017-01-09T01:50:29.077Z,3.52
2017-01-09T01:51:09.620Z,3.66
2017-01-09T01:51:50.135Z,3.6
2017-01-09T01:52:30.674Z,3.6
2017-01-09T01:53:11.161Z,3.54
2017-01-09T01:53:51.682Z,3.61
2017-01-09T01:54:32.241Z,3.65
2017-01-09T01:55:12.866Z,3.62
2017-01-09T01:55:53.450Z,3.58
2017-01-09T01:56:34.004Z,3.6
2017-01-09T01:57:14.508Z,3.6
2017-01-09T01:57:55.079Z,3.6
2017-01-09T01:58:35.612Z,3.57
2017-01-09T01:59:16.148Z,3.62
2017-01-09T01:59:56.622Z,3.61
2017-01-09T02:00:37.171Z,3.55
2017-01-09T02:01:17.673Z,3.52
2017-01-09T02:01:58.149Z,3.58
2017-01-09T02:02:38.737Z,3.65
2017-01-09T02:03:19.266Z,3.65
2017-01-09T02:03:59.828Z,3.61
2017-01-09T02:04:40.367Z,3.7
2017-01-09T02:05:21.034Z,3.65
2017-01-09T02:06:01.651Z,3.66
2017-01-09T02:06:42.214Z,3.55
2017-01-09T02:07:22.739Z,3.62
2017-01-09T02:08:03.223Z,3.75
2017-01-09T02:08:43.916Z,3.72
2017-01-09T02:09:24.450Z,3.76
2017-01-09T02:10:04.953Z,3.79
2017-01-09T02:10:45.612Z,3.79
2017-01-09T02:11:26.147Z,3.7
2017-01-09T02:12:06.711Z,3.7
2017-01-09T02:12:47.475Z,3.7
2017-01-09T02:13:28.124Z,3.72
2017-01-09T02:14:08.650Z,3.78
2017-01-09T02:14:49.188Z,3.78
2017-01-09T02:15:29.726Z,3.79
2017-01-09T02:16:10.313Z,3.72
2017-01-09T02:16:50.838Z,3.75
2017-01-09T02:17:31.538Z,3.79
2017-01-09T02:18:12.095Z,3.8
2017-01-09T02:18:52.601Z,3.75
2017-01-09T02:19:33.123Z,3.72
2017-01-09T02:20:13.647Z,3.73
2017-01-09T02:20:54.231Z,3.78
2017-01-09T02:21:34.832Z,3.78
2017-01-09T02:22:15.332Z,3.78
2017-01-09T02:22:55.845Z,3.78
2017-01-09T02:23:36.356Z,3.75
2017-01-09T02:24:16.903Z,3.79
2017-01-09T02:24:57.524Z,3.79
2017-01-09T02:25:37.946Z,3.8
2017-01-09T02:26:18.555Z,3.75
2017-01-09T02:26:59.161Z,3.79
2017-01-09T02:27:39.625Z,3.78
2017-01-09T02:28:20.182Z,3.78
2017-01-09T02:29:00.790Z,3.78
2017-01-09T02:29:41.377Z,3.75
2017-01-09T02:30:21.926Z,3.8
2017-01-09T02:31:02.400Z,3.84
2017-01-09T02:31:42.963Z,3.91
2017-01-09T02:32:23.483Z,3.87
2017-01-09T02:33:03.998Z,3.79
2017-01-09T02:33:44.635Z,3.79
2017-01-09T02:34:25.196Z,3.94
2017-01-09T02:35:05.716Z,3.79
2017-01-09T02:35:46.262Z,3.75
2017-01-09T02:36:26.809Z,3.86
2017-01-09T02:37:07.308Z,3.76
2017-01-09T02:37:47.820Z,3.78
2017-01-09T02:38:28.390Z,3.8
2017-01-09T02:39:08.908Z,3.75
2017-01-09T02:39:49.471Z,3.7
2017-01-09T02:40:29.966Z,3.8
2017-01-09T02:41:10.464Z,3.75
2017-01-09T02:41:51.033Z,3.66
2017-01-09T02:42:31.568Z,3.76
2017-01-09T02:43:12.134Z,3.66
2017-01-09T02:43:52.609Z,3.69
2017-01-09T02:44:33.174Z,3.78
2017-01-09T02:45:13.708Z,3.8
2017-01-09T02:45:54.230Z,3.78
2017-01-09T02:46:34.744Z,3.78
2017-01-09T02:47:15.267Z,3.75
2017-01-09T02:47:55.785Z,3.78
2017-01-09T02:48:36.362Z,3.79
2017-01-09T02:49:16.967Z,3.8
2017-01-09T02:49:57.425Z,3.78
2017-01-09T02:50:37.956Z,3.69
2017-01-09T02:51:18.468Z,3.75
2017-01-09T02:51:59.049Z,3.8
2017-01-09T02:52:39.565Z,3.79
2017-01-09T02:53:20.157Z,3.78
2017-01-09T02:54:00.685Z,3.78
2017-01-09T02:54:41.257Z,3.79
2017-01-09T02:55:21.778Z,3.8
2017-01-09T02:56:02.276Z,3.76
2017-01-09T02:56:42.821Z,3.78
2017-01-09T02:57:23.348Z,3.73
2017-01-09T02:58:03.880Z,3.75
2017-01-09T02:58:44.411Z,3.72
2017-01-09T02:59:24.960Z,3.69
2017-01-09T03:00:05.536Z,3.72
2017-01-09T03:00:46.075Z,3.7
2017-01-09T03:01:26.627Z,3.6
2017-01-09T03:02:07.107Z,3.6
2017-01-09T03:02:47.721Z,3.57
2017-01-09T03:03:28.245Z,3.75
2017-01-09T03:04:08.787Z,3.66
2017-01-09T03:04:49.438Z,3.55
2017-01-09T03:05:30.003Z,3.55
2017-01-09T03:06:10.472Z,3.58
2017-01-09T03:06:50.996Z,3.51
2017-01-09T03:07:31.553Z,3.55
2017-01-09T03:08:12.062Z,3.57
2017-01-09T03:08:52.753Z,3.57
2017-01-09T03:09:33.260Z,3.61
2017-01-09T03:10:13.814Z,3.55
2017-01-09T03:10:54.351Z,3.52
2017-01-09T03:11:34.937Z,3.47
2017-01-09T03:12:15.475Z,3.57
2017-01-09T03:12:56.008Z,3.52
2017-01-09T03:13:36.556Z,3.51
2017-01-09T03:14:17.110Z,3.54
2017-01-09T03:14:57.644Z,3.57
2017-01-09T03:15:38.196Z,3.66
2017-01-09T03:16:18.875Z,3.55
2017-01-09T03:16:59.367Z,3.51
2017-01-09T03:17:39.884Z,3.54
2017-01-09T03:18:20.434Z,3.4
2017-01-09T03:19:00.973Z,3.55
2017-01-09T03:19:41.525Z,3.52
2017-01-09T03:20:22.044Z,3.52
2017-01-09T03:21:02.566Z,3.48
2017-01-09T03:21:43.193Z,3.39
2017-01-09T03:22:23.725Z,3.43
2017-01-09T03:23:04.265Z,3.48
2017-01-09T03:23:44.772Z,3.48
2017-01-09T03:24:25.263Z,3.55
2017-01-09T03:25:05.796Z,3.6
2017-01-09T03:25:46.375Z,3.65
2017-01-09T03:26:26.978Z,3.65
2017-01-09T03:27:07.573Z,3.62
2017-01-09T03:27:48.104Z,3.62
2017-01-09T03:28:28.606Z,3.7
2017-01-09T03:29:09.144Z,3.65
2017-01-09T03:29:49.661Z,3.76
2017-01-09T03:30:30.212Z,3.65
2017-01-09T03:31:10.731Z,3.7
2017-01-09T03:31:51.257Z,3.72
2017-01-09T03:32:31.802Z,3.62
2017-01-09T03:33:12.338Z,3.58
2017-01-09T03:33:52.860Z,3.75
2017-01-09T03:34:33.396Z,3.65
2017-01-09T03:35:13.894Z,3.7
2017-01-09T03:35:54.468Z,3.6
2017-01-09T03:36:34.941Z,3.6
2017-01-09T03:37:15.511Z,3.58
2017-01-09T03:37:56.017Z,3.69
2017-01-09T03:38:36.564Z,3.62
2017-01-09T03:39:17.098Z,3.68
2017-01-09T03:39:57.653Z,3.5
2017-01-09T03:40:38.182Z,3.66
2017-01-09T03:41:18.737Z,3.66
2017-01-09T03:41:59.239Z,3.6
2017-01-09T03:42:39.748Z,3.66
2017-01-09T03:43:20.271Z,3.62
2017-01-09T03:44:00.831Z,3.65
2017-01-09T03:44:41.350Z,3.72
2017-01-09T03:45:21.889Z,3.6
2017-01-09T03:46:02.425Z,3.62
2017-01-09T03:46:42.964Z,3.6
2017-01-09T03:47:23.479Z,3.68
2017-01-09T03:48:03.993Z,3.61
2017-01-09T03:48:44.555Z,3.65
2017-01-09T03:49:25.083Z,3.65
2017-01-09T03:50:05.654Z,3.65
2017-01-09T03:50:46.140Z,3.61
2017-01-09T03:51:26.677Z,3.75
2017-01-09T03:52:07.246Z,3.6
2017-01-09T03:52:47.747Z,3.72
2017-01-09T03:53:28.262Z,3.68
2017-01-09T03:54:08.788Z,3.62
2017-01-09T03:54:49.326Z,3.61
2017-01-09T03:55:29.857Z,3.66
2017-01-09T03:56:10.352Z,3.57
2017-01-09T03:56:50.865Z,3.61
2017-01-09T03:57:31.419Z,3.62
2017-01-09T03:58:11.990Z,3.62
2017-01-09T03:58:52.497Z,3.62
2017-01-09T03:59:33.016Z,3.65
2017-01-09T04:00:13.540Z,3.66
2017-01-09T04:00:54.091Z,3.72
2017-01-09T04:01:34.632Z,3.73
2017-01-09T04:02:15.165Z,3.75
2017-01-09T04:02:55.733Z,3.72
2017-01-09T04:03:36.253Z,3.69
2017-01-09T04:04:16.769Z,3.7
2017-01-09T04:04:57.312Z,3.76
2017-01-09T04:05:37.880Z,3.73
2017-01-09T04:06:18.470Z,3.75
2017-01-09T04:06:58.952Z,3.78
2017-01-09T04:07:39.465Z,3.73
2017-01-09T04:08:20.022Z,3.78
2017-01-09T04:09:00.556Z,3.6
2017-01-09T04:09:41.096Z,3.61
2017-01-09T04:10:21.632Z,3.72
2017-01-09T04:11:02.195Z,3.73
2017-01-09T04:11:42.776Z,3.65
2017-01-09T04:12:23.299Z,3.65
2017-01-09T04:13:03.823Z,3.76
2017-01-09T04:13:44.358Z,3.73
2017-01-09T04:14:24.884Z,3.72
2017-01-09T04:15:05.439Z,3.7
2017-01-09T04:15:45.965Z,3.73
2017-01-09T04:16:26.484Z,3.73
2017-01-09T04:17:06.993Z,3.76
2017-01-09T04:17:47.477Z,3.73
2017-01-09T04:18:28.025Z,3.8
2017-01-09T04:19:08.522Z,3.75
2017-01-09T04:19:49.056Z,3.73
2017-01-09T04:20:29.609Z,3.75
2017-01-09T04:21:10.127Z,3.72
2017-01-09T04:21:50.654Z,3.72
2017-01-09T04:22:31.180Z,3.78
2017-01-09T04:23:11.715Z,3.72
2017-01-09T04:23:52.230Z,3.75
2017-01-09T04:24:32.775Z,3.62
2017-01-09T04:25:13.353Z,3.62
2017-01-09T04:25:53.903Z,3.73
2017-01-09T04:26:34.467Z,3.66
2017-01-09T04:27:15.018Z,3.58
2017-01-09T04:27:55.565Z,3.62
2017-01-09T04:28:36.127Z,3.72
2017-01-09T04:29:16.696Z,3.68
2017-01-09T04:29:57.238Z,3.73
2017-01-09T04:30:37.787Z,3.7
2017-01-09T04:31:18.329Z,3.65
2017-01-09T04:31:58.882Z,3.57
2017-01-09T04:32:39.401Z,3.68
2017-01-09T04:33:19.947Z,3.73
2017-01-09T04:34:00.496Z,3.75
2017-01-09T04:34:41.042Z,3.73
2017-01-09T04:35:21.595Z,3.7
2017-01-09T04:36:02.131Z,3.72
2017-01-09T04:36:42.891Z,3.7
2017-01-09T04:37:23.467Z,3.7
2017-01-09T04:38:04.018Z,3.72
2017-01-09T04:38:44.594Z,3.7
2017-01-09T04:39:25.093Z,3.75
2017-01-09T04:40:05.634Z,3.66
2017-01-09T04:40:46.136Z,3.65
2017-01-09T04:41:26.664Z,3.65
2017-01-09T04:42:07.194Z,3.72
2017-01-09T04:42:47.695Z,3.7
2017-01-09T04:43:28.255Z,3.76
2017-01-09T04:44:08.764Z,3.72
2017-01-09T04:44:49.329Z,3.72
2017-01-09T04:45:29.850Z,3.78
2017-01-09T04:46:10.461Z,3.78
2017-01-09T04:46:50.938Z,3.78
2017-01-09T04:47:31.471Z,3.73
2017-01-09T04:48:12.037Z,3.72
2017-01-09T04:48:52.560Z,3.69
2017-01-09T04:49:33.068Z,3.7
2017-01-09T04:50:13.621Z,3.76
2017-01-09T04:50:54.129Z,3.73
2017-01-09T04:51:34.638Z,3.75
2017-01-09T04:52:15.180Z,3.72
2017-01-09T04:52:55.714Z,3.72
2017-01-09T04:53:36.271Z,3.68
2017-01-09T04:54:16.846Z,3.72
2017-01-09T04:54:57.359Z,3.69
2017-01-09T04:55:37.867Z,3.62
2017-01-09T04:56:18.390Z,3.66
2017-01-09T04:56:58.911Z,3.55
2017-01-09T04:57:39.511Z,3.55
2017-01-09T04:58:20.075Z,3.5
2017-01-09T04:59:00.602Z,3.32
2017-01-09T04:59:41.130Z,3.33
2017-01-09T05:00:21.669Z,3.4
2017-01-09T05:01:02.230Z,3.4
2017-01-09T05:01:42.743Z,3.47
2017-01-09T05:02:23.286Z,3.5
2017-01-09T05:03:03.833Z,3.5
2017-01-09T05:03:44.342Z,3.42
2017-01-09T05:04:24.933Z,3.35
2017-01-09T05:05:05.527Z,3.47
2017-01-09T05:05:46.126Z,3.33
2017-01-09T05:06:26.587Z,3.5
2017-01-09T05:07:07.137Z,3.42
2017-01-09T05:07:47.667Z,3.47
2017-01-09T05:08:28.209Z,3.48
2017-01-09T05:09:08.734Z,3.4
2017-01-09T05:09:49.292Z,3.51
2017-01-09T05:10:29.846Z,3.43
2017-01-09T05:11:10.405Z,3.42
2017-01-09T05:11:50.957Z,3.6
2017-01-09T05:12:31.446Z,3.47
2017-01-09T05:13:12.016Z,3.54
2017-01-09T05:13:52.516Z,3.55
2017-01-09T05:14:33.077Z,3.58
2017-01-09T05:15:13.577Z,3.6
2017-01-09T05:15:54.101Z,3.6
2017-01-09T05:16:34.643Z,3.58
2017-01-09T05:17:15.206Z,3.54
2017-01-09T05:17:55.751Z,3.57
2017-01-09T05:18:36.280Z,3.42
2017-01-09T05:19:16.803Z,3.52
2017-01-09T05:19:57.327Z,3.51
2017-01-09T05:20:37.838Z,3.61
2017-01-09T05:21:18.414Z,3.58
2017-01-09T05:21:58.914Z,3.52
2017-01-09T05:22:39.440Z,3.55
2017-01-09T05:23:19.986Z,3.55
2017-01-09T05:24:00.528Z,3.58
2017-01-09T05:24:41.064Z,3.54
2017-01-09T05:25:21.583Z,3.57
2017-01-09T05:26:02.125Z,3.66
2017-01-09T05:26:42.666Z,3.65
2017-01-09T05:27:23.203Z,3.6
2017-01-09T05:28:03.675Z,3.51
2017-01-09T05:28:44.223Z,3.42
2017-01-09T05:29:24.791Z,3.52
2017-01-09T05:30:05.298Z,3.36
2017-01-09T05:30:45.886Z,3.24
2017-01-09T05:31:26.368Z,3.32
2017-01-09T05:32:06.897Z,3.4
2017-01-09T05:32:47.389Z,3.47
2017-01-09T05:33:27.948Z,3.47
2017-01-09T05:34:08.484Z,3.31
2017-01-09T05:34:48.965Z,3.39
2017-01-09T05:35:29.522Z,3.51
2017-01-09T05:36:10.029Z,3.45
2017-01-09T05:36:50.567Z,3.48
2017-01-09T05:37:31.094Z,3.42
2017-01-09T05:38:11.636Z,3.51
2017-01-09T05:38:52.170Z,3.55
2017-01-09T05:39:32.742Z,3.52
2017-01-09T05:40:13.286Z,3.61
2017-01-09T05:40:53.756Z,3.6
2017-01-09T05:41:34.295Z,3.61
2017-01-09T05:42:14.813Z,3.58
2017-01-09T05:42:55.338Z,3.6
2017-01-09T05:43:35.866Z,3.52
2017-01-09T05:44:16.406Z,3.57
2017-01-09T05:44:56.932Z,3.6
2017-01-09T05:45:37.455Z,3.62
2017-01-09T05:46:17.996Z,3.6
2017-01-09T05:46:58.523Z,3.62
2017-01-09T05:47:39.080Z,3.57
2017-01-09T05:48:19.554Z,3.58
2017-01-09T05:49:00.111Z,3.62
2017-01-09T05:49:40.646Z,3.61
2017-01-09T05:50:21.181Z,3.58
2017-01-09T05:51:01.702Z,3.57
2017-01-09T05:51:42.199Z,3.61
2017-01-09T05:52:22.767Z,3.75
2017-01-09T05:53:03.294Z,3.65
2017-01-09T05:53:43.820Z,3.72
2017-01-09T05:54:24.386Z,3.66
2017-01-09T05:55:04.927Z,3.7
2017-01-09T05:55:45.462Z,3.68
2017-01-09T05:56:26.011Z,3.75
2017-01-09T05:57:06.544Z,3.8
2017-01-09T05:57:47.116Z,3.8
2017-01-09T05:58:27.641Z,3.72
2017-01-09T05:59:08.198Z,3.72
2017-01-09T05:59:48.737Z,3.75
2017-01-09T06:00:29.319Z,3.69
2017-01-09T06:01:09.868Z,3.69
2017-01-09T06:01:50.372Z,3.78
2017-01-09T06:02:30.902Z,3.7
2017-01-09T06:03:11.540Z,3.66
2017-01-09T06:03:52.062Z,3.6
2017-01-09T06:04:32.591Z,3.6
2017-01-09T06:05:13.137Z,3.57
2017-01-09T06:05:53.674Z,3.6
2017-01-09T06:06:34.250Z,3.62
2017-01-09T06:07:14.763Z,3.61
2017-01-09T06:07:55.319Z,3.75
2017-01-09T06:08:36.393Z,3.7
2017-01-09T06:09:16.890Z,3.72
2017-01-09T06:09:57.440Z,3.72
2017-01-09T06:10:37.957Z,3.73
2017-01-09T06:11:18.484Z,3.83
2017-01-09T06:11:59.005Z,3.68
2017-01-09T06:12:39.591Z,3.72
2017-01-09T06:13:20.070Z,3.78
2017-01-09T06:14:00.588Z,3.7
2017-01-09T06:14:41.129Z,3.78
2017-01-09T06:15:21.690Z,3.76
2017-01-09T06:16:02.209Z,3.75
2017-01-09T06:16:42.740Z,3.79
2017-01-09T06:17:23.277Z,3.78
2017-01-09T06:18:03.795Z,3.8
2017-01-09T06:18:44.353Z,3.72
2017-01-09T06:19:24.897Z,3.76
2017-01-09T06:20:05.457Z,3.78
2017-01-09T06:20:45.963Z,3.76
2017-01-09T06:21:26.517Z,3.9
2017-01-09T06:22:07.066Z,3.7
2017-01-09T06:22:47.627Z,3.76
2017-01-09T06:23:28.211Z,3.61
2017-01-09T06:24:08.734Z,3.7
2017-01-09T06:24:49.297Z,3.75
2017-01-09T06:25:29.798Z,3.79
2017-01-09T06:26:10.392Z,3.7
2017-01-09T06:26:50.883Z,3.7
2017-01-09T06:27:31.451Z,3.76
2017-01-09T06:28:11.981Z,3.88
2017-01-09T06:28:52.553Z,3.8
2017-01-09T06:29:33.098Z,3.86
2017-01-09T06:30:13.652Z,3.87
2017-01-09T06:30:54.195Z,3.84
2017-01-09T06:31:34.746Z,3.9
2017-01-09T06:32:15.307Z,3.83
2017-01-09T06:32:55.839Z,3.93
2017-01-09T06:33:36.388Z,4
2017-01-09T06:34:16.942Z,3.96
2017-01-09T06:34:57.500Z,4.08
2017-01-09T06:35:38.033Z,4.04
2017-01-09T06:36:18.664Z,4
2017-01-09T06:36:59.201Z,3.97
2017-01-09T06:37:39.758Z,3.96
2017-01-09T06:38:20.355Z,4
2017-01-09T06:39:00.919Z,3.96
2017-01-09T06:39:41.623Z,4
2017-01-09T06:40:22.156Z,4.06
2017-01-09T06:41:02.860Z,3.96
2017-01-09T06:41:43.375Z,4.06
2017-01-09T06:42:23.946Z,4.05
2017-01-09T06:43:04.487Z,4.16
2017-01-09T06:43:45.178Z,4.08
2017-01-09T06:44:25.734Z,4.06
2017-01-09T06:45:06.291Z,4.08
2017-01-09T06:45:46.780Z,3.98
2017-01-09T06:46:27.498Z,4.02
2017-01-09T06:47:09.377Z,4
2017-01-09T06:47:49.944Z,4.08
2017-01-09T06:48:30.475Z,4.06
2017-01-09T06:49:11.014Z,3.94
2017-01-09T06:49:51.560Z,4.04
2017-01-09T06:50:32.062Z,3.98
2017-01-09T06:51:12.585Z,4.09
2017-01-09T06:51:53.134Z,3.97
2017-01-09T06:52:33.701Z,3.93
2017-01-09T06:53:14.209Z,4
2017-01-09T06:53:54.758Z,4.02
2017-01-09T06:54:35.291Z,4.08
2017-01-09T06:55:15.834Z,4.02
2017-01-09T06:55:56.373Z,3.91
2017-01-09T06:56:36.968Z,3.98
2017-01-09T06:57:17.459Z,4.08
2017-01-09T06:57:57.997Z,4.02
2017-01-09T06:58:38.580Z,4.05
2017-01-09T06:59:19.200Z,4.06
2017-01-09T06:59:59.779Z,4
2017-01-09T07:00:40.393Z,4.11
2017-01-09T07:01:20.941Z,4.15
2017-01-09T07:02:01.387Z,4.15
2017-01-09T07:02:41.987Z,4.15
2017-01-09T07:03:22.461Z,4.14
2017-01-09T07:04:02.998Z,4.02
2017-01-09T07:04:43.507Z,4.18
2017-01-09T07:05:24.097Z,4.15
2017-01-09T07:06:04.623Z,4.18
2017-01-09T07:06:45.190Z,4.18
2017-01-09T07:07:25.724Z,4.18
2017-01-09T07:08:06.247Z,4.29
2017-01-09T07:08:46.801Z,4.33
2017-01-09T07:09:27.358Z,4.29
2017-01-09T07:10:07.904Z,4.47
2017-01-09T07:10:48.450Z,4.42
2017-01-09T07:11:28.961Z,4.44
2017-01-09T07:12:09.503Z,4.42
2017-01-09T07:12:50.088Z,4.47
2017-01-09T07:13:30.673Z,4.42
2017-01-09T07:14:11.185Z,4.66
2017-01-09T07:14:51.738Z,4.97
2017-01-09T07:15:32.367Z,4.97
2017-01-09T07:16:12.947Z,4.82
2017-01-09T07:16:53.464Z,4.94
2017-01-09T07:17:33.963Z,5.17
2017-01-09T07:18:14.531Z,5.09
2017-01-09T07:18:55.061Z,4.89
2017-01-09T07:19:35.552Z,4.78
2017-01-09T07:20:16.128Z,4.66
2017-01-09T07:20:56.708Z,4.7
2017-01-09T07:21:37.191Z,4.54
2017-01-09T07:22:17.798Z,4.6
2017-01-09T07:22:58.337Z,4.51
2017-01-09T07:23:38.916Z,4.52
2017-01-09T07:24:19.432Z,4.66
2017-01-09T07:24:59.952Z,4.52
2017-01-09T07:25:40.499Z,4.65
2017-01-09T07:26:21.063Z,4.65
2017-01-09T07:27:01.618Z,4.67
2017-01-09T07:27:42.228Z,4.62
2017-01-09T07:28:22.685Z,4.59
2017-01-09T07:29:03.208Z,4.89
2017-01-09T07:29:43.751Z,4.85
2017-01-09T07:30:24.384Z,4.69
2017-01-09T07:31:04.888Z,4.75
2017-01-09T07:31:45.414Z,4.84
2017-01-09T07:32:25.954Z,4.67
2017-01-09T07:33:06.535Z,4.5
2017-01-09T07:33:47.431Z,4.63
2017-01-09T07:34:27.931Z,4.58
2017-01-09T07:35:08.490Z,4.42
2017-01-09T07:35:49.007Z,4.52
2017-01-09T07:36:29.535Z,4.55
2017-01-09T07:37:10.084Z,4.54
2017-01-09T07:37:50.621Z,4.51
2017-01-09T07:38:31.150Z,4.45
2017-01-09T07:39:11.739Z,4.52
2017-01-09T07:39:52.252Z,4.62
2017-01-09T07:40:32.765Z,4.47
2017-01-09T07:41:13.326Z,4.58
2017-01-09T07:41:53.883Z,4.55
2017-01-09T07:42:34.424Z,4.52
2017-01-09T07:43:14.968Z,4.47
2017-01-09T07:43:55.520Z,4.55
2017-01-09T07:44:36.048Z,4.6
2017-01-09T07:45:16.639Z,4.48
2017-01-09T07:45:57.168Z,4.6
2017-01-09T07:46:37.691Z,4.62
2017-01-09T07:47:18.262Z,4.6
2017-01-09T07:47:58.747Z,4.66
2017-01-09T07:48:39.341Z,4.65
2017-01-09T07:49:19.849Z,4.52
2017-01-09T07:50:00.473Z,4.67
2017-01-09T07:50:40.970Z,4.59
2017-01-09T07:51:21.509Z,4.77
2017-01-09T07:52:02.061Z,4.69
2017-01-09T07:52:42.614Z,4.72
2017-01-09T07:53:23.151Z,4.65
2017-01-09T07:56:43.828Z,5.17
2017-01-09T07:57:24.353Z,5.07
2017-01-09T07:58:04.842Z,5.07
2017-01-09T07:58:45.397Z,5.18
2017-01-09T07:59:25.953Z,5.24
2017-01-09T08:00:06.443Z,5.06
2017-01-09T08:00:46.979Z,5.04
2017-01-09T08:01:27.520Z,5.09
2017-01-09T08:02:08.065Z,5.03
2017-01-09T08:02:48.585Z,5.04
2017-01-09T08:03:29.144Z,4.97
2017-01-09T08:04:09.702Z,5.22
2017-01-09T08:04:50.214Z,5.35
2017-01-09T08:05:30.707Z,5.1
2017-01-09T08:06:11.257Z,5.06
2017-01-09T08:06:51.781Z,4.97
2017-01-09T08:07:32.336Z,5.13
2017-01-09T08:08:12.819Z,5.06
2017-01-09T08:08:53.353Z,5.25
2017-01-09T08:09:33.895Z,5.21
2017-01-09T08:10:14.447Z,5.35
2017-01-09T08:10:55.021Z,5.4
2017-01-09T08:11:35.531Z,5.38
2017-01-09T08:12:16.771Z,5.27
2017-01-09T08:12:57.317Z,5.17
2017-01-09T08:13:37.833Z,5.15
2017-01-09T08:14:18.384Z,5.1
2017-01-09T08:14:58.924Z,5.1
2017-01-09T08:15:39.427Z,5.06
2017-01-09T08:16:19.946Z,4.91
2017-01-09T08:17:00.481Z,4.97
2017-01-09T08:17:40.974Z,5
2017-01-09T08:18:21.470Z,5.12
2017-01-09T08:19:02.011Z,5.03
2017-01-09T08:19:42.555Z,4.97
2017-01-09T08:20:23.057Z,4.99
2017-01-09T08:21:03.683Z,5.04
2017-01-09T08:21:44.151Z,4.99
2017-01-09T08:22:24.679Z,4.96
2017-01-09T08:23:05.207Z,4.97
2017-01-09T08:23:45.749Z,4.91
2017-01-09T08:24:26.297Z,4.99
2017-01-09T08:25:07.642Z,4.8
2017-01-09T08:25:48.110Z,4.92
2017-01-09T08:26:28.678Z,4.96
2017-01-09T08:27:09.203Z,4.92
2017-01-09T08:27:49.697Z,4.86
2017-01-09T08:28:30.243Z,4.88
2017-01-09T08:29:10.738Z,4.91
2017-01-09T08:29:51.402Z,4.99
2017-01-09T08:30:31.913Z,4.97
2017-01-09T08:31:12.439Z,4.99
2017-01-09T08:31:52.968Z,5.06
2017-01-09T08:32:33.572Z,5.03
2017-01-09T08:33:14.076Z,4.97
2017-01-09T08:33:54.643Z,4.97
2017-01-09T08:34:35.156Z,4.99
2017-01-09T08:35:15.724Z,5.06
2017-01-09T08:35:56.252Z,5.07
2017-01-09T08:36:36.780Z,5.15
2017-01-09T08:37:17.284Z,5.02
2017-01-09T08:37:57.809Z,5
2017-01-09T08:38:38.343Z,4.96
2017-01-09T08:39:18.870Z,4.82
2017-01-09T08:39:59.426Z,4.91
2017-01-09T08:40:39.919Z,4.96
2017-01-09T08:41:20.444Z,4.92
2017-01-09T08:42:00.989Z,4.94
2017-01-09T08:42:41.528Z,4.88
2017-01-09T08:43:22.057Z,5
2017-01-09T08:44:02.533Z,4.94
2017-01-09T08:44:43.097Z,5
2017-01-09T08:45:23.673Z,5.03
2017-01-09T08:46:04.168Z,5.18
2017-01-09T08:46:44.709Z,5.17
2017-01-09T08:47:25.249Z,5.17
2017-01-09T08:48:05.749Z,5.07
2017-01-09T08:48:46.315Z,5.12
2017-01-09T08:49:26.843Z,5.17
2017-01-09T08:50:07.404Z,5.18
2017-01-09T08:50:47.929Z,5.17
2017-01-09T08:51:28.448Z,5.07
2017-01-09T08:52:08.975Z,5.2
2017-01-09T08:52:49.572Z,5.33
2017-01-09T08:53:30.151Z,5.35
2017-01-09T08:54:10.700Z,5.4
2017-01-09T08:54:51.237Z,5.31
2017-01-09T08:55:31.757Z,5.18
2017-01-09T08:56:12.313Z,5.33
2017-01-09T08:56:52.791Z,5.33
2017-01-09T08:57:33.582Z,5.27
2017-01-09T08:58:14.114Z,5.46
2017-01-09T08:58:54.649Z,5.27
2017-01-09T08:59:35.204Z,5.31
2017-01-09T09:00:15.738Z,5.28
2017-01-09T09:00:56.298Z,5.31
2017-01-09T09:01:36.834Z,5.39
2017-01-09T09:02:17.384Z,5.22
2017-01-09T09:02:57.940Z,5.25
2017-01-09T09:03:38.514Z,5.27
2017-01-09T09:04:19.062Z,5.28
2017-01-09T09:04:59.577Z,5.42
2017-01-09T09:05:40.149Z,5.21
2017-01-09T09:06:20.692Z,5.27
2017-01-09T09:07:01.249Z,5.24